Time;durP1;ratioP1;P1;durP2;ratioP2;P2;SDS_P1;SDS_P2;PMS_P1;PMS_P2;Temp;Humidity;BMP_temperature;BMP_pressure;BME280_temperature;BME280_humidity;BME280_pressure;Samples;Min_cycle;Max_cycle;Signal;HPM_P1;HPM_P2
2022/07/04 00:00:23;;;;;;;3.45;1.27;;;15.70;99.90;;;;;;4990361;28;20048;-72
2022/07/04 00:02:49;;;;;;;4.60;1.83;;;15.70;99.90;;;;;;4991123;28;20034;-72
2022/07/04 00:05:17;;;;;;;3.60;1.60;;;15.60;99.90;;;;;;4990606;28;20030;-72
2022/07/04 00:07:45;;;;;;;5.30;1.60;;;15.60;99.90;;;;;;4990831;28;20022;-72
2022/07/04 00:10:14;;;;;;;3.78;1.65;;;15.60;99.90;;;;;;4990445;28;20042;-72
2022/07/04 00:12:40;;;;;;;5.03;1.90;;;15.60;99.90;;;;;;4990262;28;20034;-72
2022/07/04 00:15:07;;;;;;;4.50;1.75;;;15.50;99.90;;;;;;4990688;28;20037;-72
2022/07/04 00:17:33;;;;;;;4.70;1.90;;;15.50;99.90;;;;;;4990530;28;20122;-72
2022/07/04 00:19:59;;;;;;;3.40;1.58;;;15.50;99.90;;;;;;4990967;28;20118;-72
2022/07/04 00:22:25;;;;;;;4.63;1.80;;;15.40;99.90;;;;;;4989509;28;20077;-72
2022/07/04 00:24:51;;;;;;;4.47;1.95;;;15.40;99.90;;;;;;4990255;28;20034;-71
2022/07/04 00:27:17;;;;;;;5.38;1.63;;;15.40;99.90;;;;;;4990194;28;20560;-73
2022/07/04 00:29:42;;;;;;;4.43;2.00;;;15.30;99.90;;;;;;4990288;28;20129;-74
2022/07/04 00:32:08;;;;;;;3.63;1.90;;;15.30;99.90;;;;;;4988192;28;20477;-72
2022/07/04 00:34:34;;;;;;;3.25;1.67;;;15.30;99.90;;;;;;4990597;28;20050;-72
2022/07/04 00:37:00;;;;;;;4.65;1.77;;;15.30;99.90;;;;;;4989647;28;20066;-72
2022/07/04 00:39:26;;;;;;;5.22;1.58;;;15.20;99.90;;;;;;4988623;28;20038;-72
2022/07/04 00:41:51;;;;;;;3.28;1.50;;;15.20;99.90;;;;;;4990069;28;20026;-72
2022/07/04 00:44:17;;;;;;;4.05;1.65;;;15.10;99.90;;;;;;4989612;28;20026;-72
2022/07/04 00:46:44;;;;;;;3.20;1.63;;;15.10;99.90;;;;;;4973861;28;20037;-72
2022/07/04 00:49:11;;;;;;;3.45;1.67;;;15.00;99.90;;;;;;4989591;28;20057;-72
2022/07/04 00:51:41;;;;;;;3.67;1.85;;;15.00;99.90;;;;;;4989327;28;20033;-72
2022/07/04 00:54:08;;;;;;;4.03;1.90;;;14.90;99.90;;;;;;4989254;28;20068;-71
2022/07/04 00:56:39;;;;;;;4.95;1.90;;;14.90;99.90;;;;;;4973760;28;20034;-72
2022/07/04 00:59:05;;;;;;;4.75;1.80;;;14.80;99.90;;;;;;4989319;28;20499;-72
2022/07/04 01:01:31;;;;;;;5.82;2.17;;;14.80;99.90;;;;;;4989253;28;20488;-73
2022/07/04 01:03:57;;;;;;;4.57;1.50;;;14.80;99.90;;;;;;4988394;28;20037;-72
2022/07/04 01:06:22;;;;;;;6.85;1.95;;;14.80;99.90;;;;;;4988506;28;20165;-73
2022/07/04 01:08:48;;;;;;;5.45;1.90;;;14.80;99.90;;;;;;4989502;28;20030;-73
2022/07/04 01:11:15;;;;;;;5.53;2.20;;;14.80;99.90;;;;;;4989547;28;20421;-73
2022/07/04 01:13:42;;;;;;;4.80;1.67;;;14.80;99.90;;;;;;4987143;28;20034;-72
2022/07/04 01:16:09;;;;;;;5.35;2.15;;;14.80;99.90;;;;;;4989458;28;20614;-72
2022/07/04 01:18:35;;;;;;;8.38;2.08;;;14.80;99.90;;;;;;4989522;28;20513;-73
2022/07/04 01:21:00;;;;;;;3.47;2.00;;;14.70;99.90;;;;;;4982026;28;20066;-72
2022/07/04 01:23:26;;;;;;;5.03;2.00;;;14.70;99.90;;;;;;4987112;28;20040;-72
2022/07/04 01:25:52;;;;;;;6.35;2.00;;;14.70;99.90;;;;;;4987424;28;20030;-72
2022/07/04 01:28:21;;;;;;;3.90;1.55;;;14.60;99.90;;;;;;4988082;28;20136;-72
2022/07/04 01:30:48;;;;;;;5.10;1.98;;;14.60;99.90;;;;;;4989287;28;20596;-72
2022/07/04 01:33:14;;;;;;;4.65;1.95;;;14.60;99.90;;;;;;4989122;28;20035;-72
2022/07/04 01:35:40;;;;;;;3.42;1.85;;;14.50;99.90;;;;;;4987943;28;20026;-72
2022/07/04 01:38:06;;;;;;;4.93;1.80;;;14.50;99.90;;;;;;4988571;28;20389;-73
2022/07/04 01:40:32;;;;;;;4.93;1.85;;;14.50;99.90;;;;;;4989129;28;20121;-73
2022/07/04 01:42:58;;;;;;;3.00;1.70;;;14.40;99.90;;;;;;4988692;28;20116;-73
2022/07/04 01:45:24;;;;;;;2.88;1.67;;;14.40;99.90;;;;;;4986138;28;20057;-72
2022/07/04 01:47:50;;;;;;;3.65;1.80;;;14.30;99.90;;;;;;4987730;28;20027;-73
2022/07/04 01:50:16;;;;;;;4.50;1.77;;;14.30;99.90;;;;;;4987602;28;20045;-74
2022/07/04 01:52:42;;;;;;;4.38;2.03;;;14.30;99.90;;;;;;4989829;28;20034;-73
2022/07/04 01:55:12;;;;;;;3.90;1.92;;;14.30;99.90;;;;;;4987157;28;20583;-71
2022/07/04 01:57:38;;;;;;;;;;;14.30;99.90;;;;;;4987168;28;20034;-72
2022/07/04 02:02:53;;;;;;;5.07;2.15;;;14.20;99.90;;;;;;4981487;28;20034;-71
2022/07/04 02:05:18;;;;;;;7.10;2.47;;;14.20;99.90;;;;;;4990118;28;20400;-72
2022/07/04 02:07:44;;;;;;;5.80;1.88;;;14.20;99.90;;;;;;4985834;28;20097;-72
2022/07/04 02:10:10;;;;;;;6.10;2.40;;;14.10;99.90;;;;;;4986781;28;20037;-71
2022/07/04 02:15:39;;;;;;;4.30;2.10;;;14.10;99.90;;;;;;4953077;28;20050;-72
2022/07/04 02:18:07;;;;;;;4.47;1.90;;;14.10;99.90;;;;;;4987511;28;20038;-72
2022/07/04 02:20:34;;;;;;;6.57;2.13;;;14.10;99.90;;;;;;4986368;28;20046;-72
2022/07/04 02:23:00;;;;;;;3.90;1.75;;;14.00;99.90;;;;;;4988214;28;20042;-72
2022/07/04 02:25:26;;;;;;;4.32;1.95;;;13.90;99.90;;;;;;4969676;28;20041;-72
2022/07/04 02:27:51;;;;;;;3.30;1.75;;;13.90;99.90;;;;;;4987493;28;20113;-72
2022/07/04 02:30:17;;;;;;;5.05;2.00;;;13.90;99.90;;;;;;4987352;28;20054;-71
2022/07/04 02:32:43;;;;;;;5.93;2.00;;;13.90;99.90;;;;;;4989124;28;20038;-72
2022/07/04 02:35:10;;;;;;;3.55;1.83;;;13.80;99.90;;;;;;4985919;28;20026;-72
2022/07/04 02:37:36;;;;;;;4.50;1.80;;;13.80;99.90;;;;;;4990560;28;20060;-72
2022/07/04 02:40:03;;;;;;;4.25;1.90;;;13.70;99.90;;;;;;4985929;28;20144;-72
2022/07/04 02:42:30;;;;;;;4.43;1.80;;;13.70;99.90;;;;;;4986823;28;20037;-73
2022/07/04 02:44:56;;;;;;;4.28;1.98;;;13.60;99.90;;;;;;4987550;28;20096;-73
2022/07/04 02:47:21;;;;;;;5.13;2.03;;;13.50;99.90;;;;;;4987042;28;20034;-72
2022/07/04 02:49:47;;;;;;;4.13;2.10;;;13.50;99.90;;;;;;4987372;28;20129;-72
2022/07/04 02:52:13;;;;;;;4.97;2.13;;;13.40;99.90;;;;;;4987034;28;20181;-72
2022/07/04 02:54:39;;;;;;;5.28;2.20;;;13.40;99.90;;;;;;4983534;28;20041;-72
2022/07/04 02:57:05;;;;;;;4.43;1.80;;;13.40;99.90;;;;;;4990438;28;20740;-72
2022/07/04 02:59:31;;;;;;;3.40;1.80;;;13.40;99.90;;;;;;4989966;28;20405;-72
2022/07/04 03:01:56;;;;;;;5.38;1.65;;;13.40;99.90;;;;;;4990569;28;20038;-72
2022/07/04 03:04:22;;;;;;;3.58;1.80;;;13.50;99.90;;;;;;4990317;28;20033;-72
2022/07/04 03:06:48;;;;;;;4.80;2.00;;;13.50;99.90;;;;;;4989317;28;20057;-72
2022/07/04 03:09:13;;;;;;;4.32;2.05;;;13.50;99.90;;;;;;4989994;28;20041;-71
2022/07/04 03:11:39;;;;;;;4.57;2.05;;;13.40;99.90;;;;;;4971122;28;20073;-71
2022/07/04 03:14:05;;;;;;;6.32;1.92;;;13.40;99.90;;;;;;4990020;28;20035;-72
2022/07/04 03:16:30;;;;;;;3.50;1.67;;;13.30;99.90;;;;;;4990764;28;20038;-72
2022/07/04 03:18:56;;;;;;;4.28;2.15;;;13.30;99.90;;;;;;4988828;28;20045;-73
2022/07/04 03:21:22;;;;;;;3.97;1.83;;;13.20;99.90;;;;;;4992183;28;20484;-73
2022/07/04 03:23:57;;;;;;;4.40;1.70;;;13.30;99.90;;;;;;4990856;28;20030;-73
2022/07/04 03:26:27;;;;;;;4.18;1.65;;;13.20;99.90;;;;;;5004387;28;20116;-73
2022/07/04 03:28:53;;;;;;;5.22;1.80;;;13.30;99.90;;;;;;4987227;28;20057;-72
2022/07/04 03:31:19;;;;;;;5.00;1.73;;;13.20;99.90;;;;;;4987529;28;20058;-73
2022/07/04 03:33:45;;;;;;;4.88;1.95;;;13.20;99.90;;;;;;4989403;28;20117;-73
2022/07/04 03:36:10;;;;;;;4.93;1.80;;;13.20;99.90;;;;;;4993612;28;20042;-72
2022/07/04 03:38:36;;;;;;;5.07;2.00;;;13.20;99.90;;;;;;4991304;28;20030;-73
2022/07/04 03:41:02;;;;;;;3.90;1.58;;;13.20;99.90;;;;;;4974241;28;20069;-73
2022/07/04 03:43:28;;;;;;;4.13;1.92;;;13.20;99.90;;;;;;4988486;28;20038;-72
2022/07/04 03:45:53;;;;;;;4.63;1.95;;;13.20;99.90;;;;;;4986833;28;20026;-73
2022/07/04 03:48:20;;;;;;;4.47;1.80;;;13.20;99.90;;;;;;4989618;28;20469;-73
2022/07/04 03:50:46;;;;;;;5.65;1.70;;;13.20;99.90;;;;;;4991132;28;20050;-72
2022/07/04 03:53:12;;;;;;;5.53;1.70;;;13.10;99.90;;;;;;4990879;28;20049;-72
2022/07/04 03:55:38;;;;;;;7.05;1.90;;;13.10;99.90;;;;;;4989290;28;20077;-72
2022/07/04 03:58:05;;;;;;;5.45;1.70;;;13.10;99.90;;;;;;4990821;28;20116;-72
2022/07/04 04:00:31;;;;;;;4.68;1.85;;;13.10;99.90;;;;;;5007727;28;20499;-72
2022/07/04 04:02:57;;;;;;;3.65;1.52;;;13.10;99.90;;;;;;4990506;28;20026;-72
2022/07/04 04:05:30;;;;;;;7.43;1.90;;;13.00;99.90;;;;;;4990297;28;20030;-71
2022/07/04 04:08:00;;;;;;;4.30;1.63;;;13.00;99.90;;;;;;4990418;28;20038;-72
2022/07/04 04:10:28;;;;;;;3.53;1.67;;;13.00;99.90;;;;;;4990107;28;20057;-72
2022/07/04 04:12:54;;;;;;;4.25;1.80;;;13.00;99.90;;;;;;4990468;28;20026;-73
2022/07/04 04:15:20;;;;;;;4.32;1.77;;;13.00;99.90;;;;;;4990964;28;20033;-72
2022/07/04 04:17:45;;;;;;;5.53;1.88;;;13.00;99.90;;;;;;4990953;28;20393;-72
2022/07/04 04:20:11;;;;;;;5.63;2.10;;;12.90;99.90;;;;;;4991013;28;20049;-72
2022/07/04 04:22:37;;;;;;;4.18;1.75;;;12.90;99.90;;;;;;4990825;28;20030;-72
2022/07/04 04:25:03;;;;;;;5.72;1.98;;;12.80;99.90;;;;;;4990542;28;20034;-72
2022/07/04 04:27:29;;;;;;;4.03;2.17;;;12.80;99.90;;;;;;4990873;28;20034;-72
2022/07/04 04:29:54;;;;;;;4.28;1.85;;;12.70;99.90;;;;;;4990449;28;20050;-72
2022/07/04 04:32:20;;;;;;;3.50;1.70;;;12.70;99.90;;;;;;4988378;28;20040;-72
2022/07/04 04:34:46;;;;;;;3.92;1.65;;;12.70;99.90;;;;;;4979199;28;20601;-72
2022/07/04 04:37:11;;;;;;;4.75;1.92;;;12.60;99.90;;;;;;4991153;28;20057;-72
2022/07/04 04:39:38;;;;;;;3.65;1.63;;;12.60;99.90;;;;;;4975576;28;20063;-72
2022/07/04 04:42:04;;;;;;;5.25;1.83;;;12.70;99.90;;;;;;4971039;28;20054;-73
2022/07/04 04:44:29;;;;;;;6.18;1.98;;;12.80;99.90;;;;;;4970871;28;20086;-73
2022/07/04 04:46:55;;;;;;;5.53;1.85;;;12.80;99.90;;;;;;4987198;28;20042;-73
2022/07/04 04:49:20;;;;;;;3.55;1.70;;;12.80;99.90;;;;;;4990342;28;20457;-73
2022/07/04 04:51:46;;;;;;;4.70;2.00;;;12.90;99.90;;;;;;4989797;28;20026;-73
2022/07/04 04:54:12;;;;;;;3.53;1.60;;;12.90;99.90;;;;;;4990329;28;20046;-72
2022/07/04 04:56:37;;;;;;;2.45;1.30;;;12.90;99.90;;;;;;4989083;28;20077;-73
2022/07/04 04:59:03;;;;;;;4.85;1.70;;;12.90;99.90;;;;;;4971845;28;20504;-72
2022/07/04 05:01:29;;;;;;;5.40;2.10;;;13.00;99.90;;;;;;4989753;28;20515;-72
2022/07/04 05:03:54;;;;;;;3.90;1.63;;;13.00;99.90;;;;;;4987387;28;20050;-71
2022/07/04 05:06:20;;;;;;;4.97;2.00;;;13.00;99.90;;;;;;4989150;28;20029;-72
2022/07/04 05:08:46;;;;;;;4.38;1.70;;;13.00;99.90;;;;;;4988731;28;20030;-71
2022/07/04 05:11:11;;;;;;;6.35;1.92;;;13.00;99.90;;;;;;4988819;28;20046;-71
2022/07/04 05:13:37;;;;;;;4.97;1.55;;;13.00;99.90;;;;;;4986425;28;20057;-72
2022/07/04 05:16:03;;;;;;;4.68;1.63;;;13.00;99.90;;;;;;4989185;28;20453;-72
2022/07/04 05:18:29;;;;;;;4.93;1.63;;;13.10;99.90;;;;;;4991843;28;20042;-72
2022/07/04 05:20:55;;;;;;;3.45;1.58;;;13.10;99.90;;;;;;4988840;28;20645;-72
2022/07/04 05:23:21;;;;;;;3.63;1.52;;;13.10;99.90;;;;;;4987236;28;20437;-73
2022/07/04 05:25:47;;;;;;;4.10;1.85;;;13.10;99.90;;;;;;4986700;28;20030;-72
2022/07/04 05:28:13;;;;;;;3.65;1.60;;;13.10;99.90;;;;;;4987991;28;20720;-72
2022/07/04 05:30:39;;;;;;;3.70;1.55;;;13.20;99.90;;;;;;4969382;28;20069;-72
2022/07/04 05:33:04;;;;;;;3.40;1.60;;;13.20;99.90;;;;;;4987891;28;20035;-72
2022/07/04 05:35:31;;;;;;;4.97;1.40;;;13.20;99.90;;;;;;4968887;28;20030;-72
2022/07/04 05:37:57;;;;;;;4.13;1.55;;;13.20;99.90;;;;;;4967417;28;20555;-72
2022/07/04 05:40:23;;;;;;;2.53;1.30;;;13.30;99.90;;;;;;4987409;28;20048;-72
2022/07/04 05:42:48;;;;;;;4.00;1.50;;;13.30;99.90;;;;;;4987744;28;20026;-72
2022/07/04 05:45:15;;;;;;;3.58;1.40;;;13.30;99.90;;;;;;4986471;28;20060;-72
2022/07/04 05:47:41;;;;;;;2.90;1.45;;;13.40;99.90;;;;;;4986891;28;20034;-72
2022/07/04 05:50:07;;;;;;;3.72;1.40;;;13.40;99.90;;;;;;4987573;28;20033;-72
2022/07/04 05:52:32;;;;;;;4.10;1.50;;;13.40;99.90;;;;;;4987330;28;20623;-71
2022/07/04 05:54:58;;;;;;;3.00;1.40;;;13.50;99.90;;;;;;4988206;28;20043;-72
2022/07/04 05:57:24;;;;;;;3.45;1.17;;;13.50;99.90;;;;;;4988641;28;20022;-71
2022/07/04 05:59:49;;;;;;;2.42;1.25;;;13.60;99.90;;;;;;4983811;28;20039;-71
2022/07/04 06:02:15;;;;;;;4.03;1.20;;;13.60;99.90;;;;;;4971054;28;20034;-71
2022/07/04 06:04:42;;;;;;;2.42;1.20;;;13.70;99.90;;;;;;4984748;28;20092;-72
2022/07/04 06:07:08;;;;;;;3.50;0.90;;;13.70;99.90;;;;;;4986566;28;20057;-71
2022/07/04 06:09:34;;;;;;;2.63;1.35;;;13.80;99.90;;;;;;4972312;28;20042;-71
2022/07/04 06:12:00;;;;;;;3.00;1.10;;;13.80;99.90;;;;;;4987328;28;20369;-72
2022/07/04 06:14:25;;;;;;;4.65;1.30;;;13.80;99.90;;;;;;4987687;28;20038;-73
2022/07/04 06:16:51;;;;;;;2.30;1.30;;;13.80;99.90;;;;;;4986611;28;20053;-72
2022/07/04 06:19:17;;;;;;;4.03;1.10;;;13.80;99.90;;;;;;4986807;28;20109;-72
2022/07/04 06:21:42;;;;;;;3.63;1.20;;;13.90;99.90;;;;;;4986062;28;20034;-72
2022/07/04 06:24:08;;;;;;;3.40;1.83;;;14.00;99.90;;;;;;4972206;28;20038;-71
2022/07/04 06:26:33;;;;;;;4.53;1.38;;;14.00;99.90;;;;;;4982235;28;20117;-72
2022/07/04 06:28:59;;;;;;;5.20;1.45;;;14.10;99.90;;;;;;4986356;28;20057;-72
2022/07/04 06:31:25;;;;;;;4.60;1.30;;;14.20;99.90;;;;;;4973319;28;20046;-72
2022/07/04 06:36:34;;;;;;;4.35;1.50;;;14.40;99.90;;;;;;4992594;28;20400;-72
2022/07/04 06:39:00;;;;;;;3.70;1.17;;;14.50;99.90;;;;;;4984464;28;20476;-72
2022/07/04 06:41:27;;;;;;;3.47;1.20;;;14.60;99.90;;;;;;4999054;28;20116;-73
2022/07/04 06:43:53;;;;;;;2.95;1.20;;;14.60;99.90;;;;;;4989173;28;20044;-73
2022/07/04 06:46:18;;;;;;;4.00;1.20;;;14.70;99.90;;;;;;4990840;28;20444;-73
2022/07/04 06:48:44;;;;;;;2.25;0.90;;;14.80;99.90;;;;;;4983962;28;20038;-74
2022/07/04 06:51:11;;;;;;;4.13;1.05;;;14.90;99.90;;;;;;4989632;28;20121;-73
2022/07/04 06:53:36;;;;;;;3.97;1.35;;;14.90;99.90;;;;;;4986015;28;20038;-74
2022/07/04 06:56:02;;;;;;;2.33;1.00;;;14.90;99.90;;;;;;4992945;28;20096;-73
2022/07/04 06:58:28;;;;;;;3.42;1.38;;;14.90;99.90;;;;;;5002400;28;20038;-71
2022/07/04 07:00:54;;;;;;;3.78;1.42;;;15.00;99.90;;;;;;4993730;28;20045;-72
2022/07/04 07:03:19;;;;;;;4.25;1.10;;;15.00;99.90;;;;;;4993537;28;20049;-73
2022/07/04 07:05:45;;;;;;;2.50;0.90;;;15.00;99.90;;;;;;4992440;28;20045;-74
2022/07/04 07:08:11;;;;;;;2.25;1.02;;;15.00;99.90;;;;;;4976282;28;20037;-72
2022/07/04 07:10:36;;;;;;;2.72;0.90;;;15.00;99.90;;;;;;4980699;28;20501;-72
2022/07/04 07:13:03;;;;;;;3.22;1.10;;;15.00;99.90;;;;;;4983975;28;20040;-72
2022/07/04 07:15:29;;;;;;;2.35;1.25;;;15.20;99.90;;;;;;4989301;28;20045;-73
2022/07/04 07:17:54;;;;;;;4.55;1.08;;;15.30;99.90;;;;;;4990065;28;20034;-72
2022/07/04 07:20:20;;;;;;;2.78;1.02;;;15.40;99.90;;;;;;4979785;28;20043;-71
2022/07/04 07:22:46;;;;;;;3.78;1.90;;;15.60;99.90;;;;;;4991223;28;20436;-72
2022/07/04 07:25:12;;;;;;;2.72;1.17;;;15.90;99.90;;;;;;4990210;28;20026;-74
2022/07/04 07:27:39;;;;;;;3.38;1.23;;;16.10;99.90;;;;;;4991350;28;20467;-73
2022/07/04 07:30:06;;;;;;;1.88;0.90;;;16.30;99.90;;;;;;4991063;28;20524;-72
2022/07/04 07:32:31;;;;;;;2.55;1.00;;;16.40;99.90;;;;;;4990383;28;20034;-72
2022/07/04 07:34:57;;;;;;;3.05;0.90;;;16.50;99.90;;;;;;4991608;28;20045;-72
2022/07/04 07:37:23;;;;;;;1.95;1.02;;;16.50;99.90;;;;;;4991878;28;20556;-72
2022/07/04 07:39:50;;;;;;;2.67;1.00;;;16.60;99.90;;;;;;4991501;28;20052;-72
2022/07/04 07:42:16;;;;;;;2.53;1.00;;;16.70;99.90;;;;;;4989382;28;20030;-73
2022/07/04 07:44:46;;;;;;;2.33;1.00;;;16.80;99.90;;;;;;4991354;28;20026;-72
2022/07/04 07:47:12;;;;;;;2.78;0.80;;;16.80;99.90;;;;;;4990446;28;20030;-73
2022/07/04 07:49:38;;;;;;;1.42;0.60;;;16.90;99.90;;;;;;4990760;28;20077;-73
2022/07/04 07:52:04;;;;;;;2.28;0.60;;;16.90;99.90;;;;;;4989350;28;20085;-72
2022/07/04 07:54:29;;;;;;;1.60;0.70;;;17.00;99.90;;;;;;4988390;28;20042;-72
2022/07/04 07:56:55;;;;;;;3.03;0.70;;;17.10;99.90;;;;;;4990269;28;20076;-73
2022/07/04 07:59:21;;;;;;;1.88;0.65;;;17.20;99.90;;;;;;4989874;28;20480;-72
2022/07/04 08:01:46;;;;;;;2.50;0.68;;;17.30;99.90;;;;;;4986742;28;20042;-73
2022/07/04 08:06:56;;;;;;;1.75;0.52;;;17.50;97.80;;;;;;4989955;28;20066;-72
2022/07/04 08:09:22;;;;;;;1.10;0.50;;;17.60;98.10;;;;;;4988726;28;20030;-73
2022/07/04 08:11:48;;;;;;;2.90;0.70;;;17.70;97.40;;;;;;4989377;28;20034;-73
2022/07/04 08:14:13;;;;;;;1.95;0.88;;;17.80;96.20;;;;;;4987366;28;20026;-72
2022/07/04 08:16:40;;;;;;;4.32;1.45;;;17.90;94.10;;;;;;4983502;28;20034;-72
2022/07/04 08:19:06;;;;;;;2.55;0.80;;;17.90;93.90;;;;;;4989879;28;20068;-73
2022/07/04 08:21:31;;;;;;;3.42;0.82;;;18.00;94.20;;;;;;4990158;28;20159;-71
2022/07/04 08:23:57;;;;;;;2.53;0.63;;;18.10;94.60;;;;;;4995719;28;20736;-71
2022/07/04 08:26:23;;;;;;;4.22;0.60;;;18.10;95.00;;;;;;4985360;28;20057;-73
2022/07/04 08:28:52;;;;;;;2.10;0.77;;;18.20;92.90;;;;;;4971768;28;20034;-73
2022/07/04 08:31:18;;;;;;;2.25;0.90;;;18.30;93.60;;;;;;4990500;28;20093;-73
2022/07/04 08:33:46;;;;;;;2.28;0.80;;;18.30;93.70;;;;;;4988991;28;20023;-72
2022/07/04 08:36:12;;;;;;;2.58;0.70;;;18.20;92.60;;;;;;5009585;28;20034;-73
2022/07/04 08:38:38;;;;;;;6.25;1.00;;;18.20;91.80;;;;;;5003725;28;20037;-73
2022/07/04 08:41:04;;;;;;;2.78;0.85;;;18.10;92.10;;;;;;4982890;28;20038;-73
2022/07/04 08:43:33;;;;;;;1.45;0.70;;;18.10;93.30;;;;;;4989149;28;20074;-72
2022/07/04 08:46:00;;;;;;;3.42;0.77;;;18.10;93.90;;;;;;4988311;28;20030;-72
2022/07/04 08:48:26;;;;;;;1.95;0.70;;;18.20;92.30;;;;;;4996702;28;20042;-70
2022/07/04 08:50:57;;;;;;;2.25;0.50;;;18.30;92.60;;;;;;4988314;28;20046;-73
2022/07/04 08:53:27;;;;;;;0.40;0.30;;;18.40;91.70;;;;;;4988182;28;20035;-72
2022/07/04 08:58:39;;;;;;;3.35;0.90;;;18.50;89.90;;;;;;4989006;28;20084;-72
2022/07/04 09:01:07;;;;;;;3.78;1.20;;;18.50;87.30;;;;;;4988997;28;20560;-72
2022/07/04 09:03:34;;;;;;;3.40;1.25;;;18.50;90.40;;;;;;4988035;28;20125;-71
2022/07/04 09:06:00;;;;;;;3.38;0.90;;;18.60;88.80;;;;;;4985373;28;20031;-72
2022/07/04 09:08:27;;;;;;;2.05;0.70;;;18.60;90.00;;;;;;4988223;28;20934;-72
2022/07/04 09:10:54;;;;;;;3.55;0.88;;;18.60;88.80;;;;;;4966919;28;20620;-73
2022/07/04 09:13:20;;;;;;;2.08;0.75;;;18.70;90.70;;;;;;4988617;28;20062;-72
2022/07/04 09:15:50;;;;;;;1.67;0.70;;;18.70;88.10;;;;;;4985816;28;21733;-72
2022/07/04 09:18:36;;;;;;;1.83;0.50;;;18.80;89.50;;;;;;4981271;28;20030;-73
2022/07/04 09:21:07;;;;;;;2.55;0.93;;;18.90;85.20;;;;;;4986374;28;20038;-71
2022/07/04 09:23:38;;;;;;;2.47;0.60;;;18.90;86.20;;;;;;4984849;28;20113;-73
2022/07/04 09:26:13;;;;;;;1.98;0.68;;;18.90;86.40;;;;;;4987473;28;20065;-72
2022/07/04 09:28:41;;;;;;;1.25;0.50;;;19.10;85.80;;;;;;4986958;28;20496;-71
2022/07/04 09:31:14;;;;;;;1.58;0.60;;;19.30;83.70;;;;;;4990071;28;20069;-73
2022/07/04 09:33:47;;;;;;;0.75;0.45;;;19.40;80.10;;;;;;4989294;28;20539;-72
2022/07/04 09:36:14;;;;;;;1.17;0.60;;;19.60;80.30;;;;;;4987863;28;20034;-73
2022/07/04 09:38:40;;;;;;;3.55;0.50;;;19.70;74.20;;;;;;4987101;28;20485;-70
2022/07/04 09:44:00;;;;;;;2.20;0.70;;;19.70;75.70;;;;;;4987342;28;20046;-73
2022/07/04 09:46:26;;;;;;;2.67;0.60;;;19.70;76.80;;;;;;4985838;28;20046;-72
2022/07/04 09:48:52;;;;;;;1.85;0.60;;;19.60;81.20;;;;;;4986977;28;20030;-72
2022/07/04 09:51:48;;;;;;;2.13;0.55;;;19.70;79.30;;;;;;4985716;28;20070;-72
2022/07/04 09:54:17;;;;;;;2.20;0.73;;;19.70;80.20;;;;;;4970726;28;20425;-72
2022/07/04 09:56:46;;;;;;;2.30;0.75;;;19.90;81.80;;;;;;4987652;28;20481;-73
2022/07/04 09:59:11;;;;;;;2.00;0.80;;;20.00;81.20;;;;;;4986508;28;20540;-72
2022/07/04 10:01:39;;;;;;;3.00;0.75;;;20.10;77.80;;;;;;4986059;28;20038;-72
2022/07/04 10:04:05;;;;;;;2.00;0.70;;;20.10;73.50;;;;;;4987501;28;20117;-71
2022/07/04 10:06:33;;;;;;;2.33;0.70;;;20.10;75.90;;;;;;4986892;28;20133;-71
2022/07/04 10:09:10;;;;;;;2.05;0.68;;;19.90;73.30;;;;;;4983958;28;20109;-72
2022/07/04 10:11:38;;;;;;;1.95;0.60;;;19.70;75.20;;;;;;4987154;28;20045;-72
2022/07/04 10:14:06;;;;;;;1.00;0.68;;;19.70;81.80;;;;;;4998771;28;20033;-72
2022/07/04 10:16:31;;;;;;;2.10;0.68;;;19.70;80.20;;;;;;4995094;28;20065;-73
2022/07/04 10:18:57;;;;;;;2.97;0.70;;;19.70;84.80;;;;;;5003109;28;20077;-73
2022/07/04 10:21:23;;;;;;;2.70;1.00;;;19.80;81.50;;;;;;4986188;28;20449;-72
2022/07/04 10:23:51;;;;;;;1.88;0.77;;;20.10;84.10;;;;;;4977695;28;20038;-72
2022/07/04 10:26:22;;;;;;;1.85;0.57;;;20.30;83.80;;;;;;4986654;28;20109;-71
2022/07/04 10:28:49;;;;;;;2.75;0.68;;;20.50;80.10;;;;;;4987429;28;20085;-72
2022/07/04 10:31:16;;;;;;;2.42;0.60;;;20.60;76.90;;;;;;4987703;28;20040;-70
2022/07/04 10:33:43;;;;;;;2.63;0.70;;;20.60;77.40;;;;;;4985043;28;20034;-71
2022/07/04 10:36:28;;;;;;;3.75;0.65;;;20.60;79.00;;;;;;4981164;28;20038;-72
2022/07/04 10:39:00;;;;;;;1.20;0.63;;;20.80;82.20;;;;;;4975251;28;20826;-72
2022/07/04 10:41:28;;;;;;;1.83;0.65;;;21.00;88.40;;;;;;4971228;28;20707;-72
2022/07/04 10:43:59;;;;;;;1.83;0.60;;;21.10;85.70;;;;;;4987143;28;20090;-71
2022/07/04 10:46:27;;;;;;;1.55;0.60;;;21.20;87.40;;;;;;4987313;28;20128;-72
2022/07/04 10:49:24;;;;;;;2.58;0.80;;;21.30;88.60;;;;;;4987003;28;20037;-73
2022/07/04 10:51:52;;;;;;;2.72;0.70;;;21.40;88.60;;;;;;4974630;28;20042;-73
2022/07/04 10:54:19;;;;;;;3.13;0.65;;;21.50;84.40;;;;;;4985241;28;20111;-73
2022/07/04 10:56:55;;;;;;;2.05;0.80;;;21.40;85.50;;;;;;4987179;28;20034;-73
2022/07/04 10:59:29;;;;;;;2.97;0.80;;;21.30;90.80;;;;;;4987119;28;20034;-74
2022/07/04 11:02:04;;;;;;;1.88;0.80;;;21.40;90.10;;;;;;4988366;28;20092;-73
2022/07/04 11:05:06;;;;;;;4.25;0.85;;;21.30;90.60;;;;;;4992110;28;20034;-73
2022/07/04 11:07:35;;;;;;;2.40;0.85;;;21.20;90.10;;;;;;4986250;28;20034;-73
2022/07/04 11:10:13;;;;;;;4.43;1.10;;;20.90;87.70;;;;;;4994528;28;20038;-73
2022/07/04 11:12:54;;;;;;;2.90;1.13;;;20.90;86.50;;;;;;4985734;28;20029;-73
2022/07/04 11:15:28;;;;;;;2.72;0.73;;;20.70;87.70;;;;;;4987430;28;20034;-73
2022/07/04 11:18:00;;;;;;;3.10;0.80;;;20.50;90.40;;;;;;4987383;28;20038;-72
2022/07/04 11:20:29;;;;;;;2.20;0.93;;;20.40;87.00;;;;;;4991076;28;20038;-75
2022/07/04 11:23:17;;;;;;;3.33;1.00;;;20.40;89.40;;;;;;4992010;28;20034;-71
2022/07/04 11:25:45;;;;;;;3.03;0.90;;;20.70;88.10;;;;;;4990851;28;20397;-72
2022/07/04 11:28:28;;;;;;;2.92;0.90;;;21.00;90.30;;;;;;4974374;28;20034;-73
2022/07/04 11:31:00;;;;;;;2.92;0.80;;;21.40;85.60;;;;;;4979203;28;20379;-73
2022/07/04 11:33:29;;;;;;;2.88;0.82;;;21.60;88.20;;;;;;4991624;28;20490;-73
2022/07/04 11:36:09;;;;;;;5.10;1.00;;;21.50;80.70;;;;;;4991099;28;20030;-72
2022/07/04 11:38:47;;;;;;;3.50;0.68;;;21.50;80.50;;;;;;4982909;28;20142;-71
2022/07/04 11:46:45;;;;;;;3.63;0.88;;;21.70;87.90;;;;;;4990689;28;20034;-72
2022/07/04 11:49:12;;;;;;;4.38;0.95;;;21.60;84.80;;;;;;4977945;28;20030;-73
2022/07/04 11:51:47;;;;;;;2.58;0.90;;;21.40;86.30;;;;;;4985886;28;20043;-72
2022/07/04 11:54:13;;;;;;;4.13;1.00;;;21.30;85.60;;;;;;4984248;28;20030;-73
2022/07/04 11:56:39;;;;;;;4.47;1.25;;;21.30;87.90;;;;;;4991153;28;20049;-72
2022/07/04 11:59:15;;;;;;;3.78;1.00;;;21.50;87.10;;;;;;4979434;28;20039;-74
2022/07/04 12:01:42;;;;;;;3.60;0.90;;;21.50;86.30;;;;;;4989142;28;20038;-73
2022/07/04 12:04:16;;;;;;;5.25;0.90;;;21.70;92.50;;;;;;4990865;28;20042;-73
2022/07/04 12:06:43;;;;;;;3.95;1.20;;;22.10;92.30;;;;;;4990205;28;20033;-73
2022/07/04 12:09:08;;;;;;;4.97;1.10;;;22.10;89.30;;;;;;4991281;28;20093;-70
2022/07/04 12:11:51;;;;;;;4.85;1.23;;;21.90;90.40;;;;;;4967825;28;20120;-73
2022/07/04 12:14:17;;;;;;;4.50;1.00;;;21.70;87.40;;;;;;4985922;28;20052;-72
2022/07/04 12:16:42;;;;;;;6.10;1.17;;;21.40;90.90;;;;;;4988110;28;20125;-73
2022/07/04 12:19:11;;;;;;;6.10;0.95;;;21.20;92.10;;;;;;4990293;28;20486;-73
2022/07/04 12:21:38;;;;;;;3.27;1.00;;;21.10;93.20;;;;;;4986977;28;20038;-73
2022/07/04 12:24:04;;;;;;;2.95;0.80;;;21.00;92.60;;;;;;4988169;28;20288;-72
2022/07/04 12:26:35;;;;;;;3.97;1.08;;;21.00;92.10;;;;;;4985464;28;20042;-73
2022/07/04 12:29:00;;;;;;;2.58;0.88;;;21.00;92.30;;;;;;4983594;28;20181;-73
2022/07/04 12:31:43;;;;;;;4.80;1.00;;;21.00;92.00;;;;;;4985977;28;20161;-73
2022/07/04 12:34:16;;;;;;;4.10;1.00;;;21.10;93.20;;;;;;4986235;28;20481;-72
2022/07/04 12:36:50;;;;;;;4.78;1.10;;;21.20;92.40;;;;;;4991956;28;20034;-73
2022/07/04 12:39:29;;;;;;;6.95;1.30;;;21.40;92.60;;;;;;4983441;28;20030;-73
2022/07/04 12:42:09;;;;;;;3.15;0.95;;;21.60;90.20;;;;;;4986106;28;20505;-73
2022/07/04 12:44:35;;;;;;;3.42;0.90;;;21.70;88.00;;;;;;4987392;28;20031;-72
2022/07/04 12:47:03;;;;;;;4.88;0.80;;;21.70;91.30;;;;;;5004964;28;20046;-72
2022/07/04 12:49:28;;;;;;;3.30;0.82;;;21.80;91.00;;;;;;5009926;28;20042;-73
2022/07/04 12:52:10;;;;;;;3.78;1.10;;;22.10;89.40;;;;;;4982525;28;20097;-72
2022/07/04 12:54:36;;;;;;;5.05;0.98;;;22.00;89.10;;;;;;4971444;28;20488;-74
2022/07/04 12:57:11;;;;;;;4.78;1.17;;;22.00;88.80;;;;;;4984327;28;20125;-76
2022/07/04 12:59:38;;;;;;;3.28;1.00;;;22.00;90.00;;;;;;4981307;28;20065;-74
2022/07/04 13:02:05;;;;;;;6.68;1.00;;;21.90;91.10;;;;;;4981158;28;20034;-75
2022/07/04 13:04:32;;;;;;;4.13;0.82;;;22.00;91.20;;;;;;4989111;28;20050;-76
2022/07/04 13:06:59;;;;;;;6.22;0.85;;;22.10;88.90;;;;;;4973463;28;20491;-75
2022/07/04 13:09:26;;;;;;;3.33;0.90;;;22.20;90.80;;;;;;4992585;28;20072;-74
2022/07/04 13:14:36;;;;;;;5.88;0.90;;;21.90;88.90;;;;;;4990037;28;20515;-77